sensor_id;sensor_type;location;lat;lon;timestamp;temperature;humidity
24772;DHT22;12870;52.274;9.754;2022-09-09T00:01:29;16.00;99.90
24772;DHT22;12870;52.274;9.754;2022-09-09T00:04:15;15.90;99.90
24772;DHT22;12870;52.274;9.754;2022-09-09T00:06:52;15.90;99.90
24772;DHT22;12870;52.274;9.754;2022-09-09T00:09:21;15.90;99.90
24772;DHT22;12870;52.274;9.754;2022-09-09T00:12:23;15.90;99.90
24772;DHT22;12870;52.274;9.754;2022-09-09T00:15:00;15.90;99.90
24772;DHT22;12870;52.274;9.754;2022-09-09T00:17:32;15.90;99.90
24772;DHT22;12870;52.274;9.754;2022-09-09T00:22:29;15.90;99.90
24772;DHT22;12870;52.274;9.754;2022-09-09T00:25:27;15.80;99.90
24772;DHT22;12870;52.274;9.754;2022-09-09T00:27:56;15.80;99.90
24772;DHT22;12870;52.274;9.754;2022-09-09T00:30:24;15.80;99.90
24772;DHT22;12870;52.274;9.754;2022-09-09T00:32:54;15.70;99.90
24772;DHT22;12870;52.274;9.754;2022-09-09T00:37:52;15.70;99.90
24772;DHT22;12870;52.274;9.754;2022-09-09T00:40:45;15.70;99.90
24772;DHT22;12870;52.274;9.754;2022-09-09T00:43:27;15.70;99.90
24772;DHT22;12870;52.274;9.754;2022-09-09T00:49:07;15.70;99.90
24772;DHT22;12870;52.274;9.754;2022-09-09T00:52:06;15.60;99.90
24772;DHT22;12870;52.274;9.754;2022-09-09T00:57:25;15.60;99.90
24772;DHT22;12870;52.274;9.754;2022-09-09T01:08:02;15.50;99.90
24772;DHT22;12870;52.274;9.754;2022-09-09T01:13:11;15.50;99.90
24772;DHT22;12870;52.274;9.754;2022-09-09T01:15:41;15.50;99.90
24772;DHT22;12870;52.274;9.754;2022-09-09T01:18:12;15.40;99.90
24772;DHT22;12870;52.274;9.754;2022-09-09T01:26:18;15.50;99.90
24772;DHT22;12870;52.274;9.754;2022-09-09T01:28:47;15.40;99.90
24772;DHT22;12870;52.274;9.754;2022-09-09T01:31:17;15.50;99.90
24772;DHT22;12870;52.274;9.754;2022-09-09T01:33:43;15.50;99.90
24772;DHT22;12870;52.274;9.754;2022-09-09T01:36:25;15.50;99.90
24772;DHT22;12870;52.274;9.754;2022-09-09T01:38:52;15.50;99.90
24772;DHT22;12870;52.274;9.754;2022-09-09T01:41:18;15.50;99.90
24772;DHT22;12870;52.274;9.754;2022-09-09T01:43:44;15.40;99.90
24772;DHT22;12870;52.274;9.754;2022-09-09T01:46:12;15.40;99.90
24772;DHT22;12870;52.274;9.754;2022-09-09T01:48:38;15.40;99.90
24772;DHT22;12870;52.274;9.754;2022-09-09T01:51:04;15.40;99.90
24772;DHT22;12870;52.274;9.754;2022-09-09T01:53:30;15.30;99.90
24772;DHT22;12870;52.274;9.754;2022-09-09T01:56:29;15.30;99.90
24772;DHT22;12870;52.274;9.754;2022-09-09T02:03:59;15.30;99.90
24772;DHT22;12870;52.274;9.754;2022-09-09T02:06:35;15.30;99.90
24772;DHT22;12870;52.274;9.754;2022-09-09T02:09:05;15.30;99.90
24772;DHT22;12870;52.274;9.754;2022-09-09T02:11:32;15.30;99.90
24772;DHT22;12870;52.274;9.754;2022-09-09T02:14:08;15.30;99.90
24772;DHT22;12870;52.274;9.754;2022-09-09T02:16:50;15.20;99.90
24772;DHT22;12870;52.274;9.754;2022-09-09T02:19:49;15.30;99.90
24772;DHT22;12870;52.274;9.754;2022-09-09T02:22:21;15.30;99.90
24772;DHT22;12870;52.274;9.754;2022-09-09T02:24:49;15.20;99.90
24772;DHT22;12870;52.274;9.754;2022-09-09T02:27:18;15.20;99.90
24772;DHT22;12870;52.274;9.754;2022-09-09T02:29:44;15.10;99.90
24772;DHT22;12870;52.274;9.754;2022-09-09T02:32:15;15.10;99.90
24772;DHT22;12870;52.274;9.754;2022-09-09T02:34:51;15.10;99.90
24772;DHT22;12870;52.274;9.754;2022-09-09T02:37:22;15.10;99.90
24772;DHT22;12870;52.274;9.754;2022-09-09T02:39:50;15.10;99.90
24772;DHT22;12870;52.274;9.754;2022-09-09T02:42:16;15.10;99.90
24772;DHT22;12870;52.274;9.754;2022-09-09T02:44:42;15.20;99.90
24772;DHT22;12870;52.274;9.754;2022-09-09T02:49:54;15.20;99.90
24772;DHT22;12870;52.274;9.754;2022-09-09T02:55:15;15.30;99.90
24772;DHT22;12870;52.274;9.754;2022-09-09T02:57:42;15.30;99.90
24772;DHT22;12870;52.274;9.754;2022-09-09T03:00:11;15.40;99.90
24772;DHT22;12870;52.274;9.754;2022-09-09T03:02:37;15.40;99.90
24772;DHT22;12870;52.274;9.754;2022-09-09T03:05:03;15.40;99.90
24772;DHT22;12870;52.274;9.754;2022-09-09T03:07:28;15.40;99.90
24772;DHT22;12870;52.274;9.754;2022-09-09T03:09:54;15.40;99.90
24772;DHT22;12870;52.274;9.754;2022-09-09T03:12:20;15.40;99.90
24772;DHT22;12870;52.274;9.754;2022-09-09T03:14:46;15.40;99.90
24772;DHT22;12870;52.274;9.754;2022-09-09T03:17:12;15.30;99.90
24772;DHT22;12870;52.274;9.754;2022-09-09T03:19:38;15.30;99.90
24772;DHT22;12870;52.274;9.754;2022-09-09T03:22:03;15.30;99.90
24772;DHT22;12870;52.274;9.754;2022-09-09T03:24:30;15.20;99.90
24772;DHT22;12870;52.274;9.754;2022-09-09T03:26:55;15.20;99.90
24772;DHT22;12870;52.274;9.754;2022-09-09T03:29:21;15.20;99.90
24772;DHT22;12870;52.274;9.754;2022-09-09T03:31:47;15.20;99.90
24772;DHT22;12870;52.274;9.754;2022-09-09T03:34:13;15.20;99.90
24772;DHT22;12870;52.274;9.754;2022-09-09T03:36:39;15.20;99.90
24772;DHT22;12870;52.274;9.754;2022-09-09T03:39:06;15.30;99.90
24772;DHT22;12870;52.274;9.754;2022-09-09T03:41:32;15.30;99.90
24772;DHT22;12870;52.274;9.754;2022-09-09T03:43:57;15.30;99.90
24772;DHT22;12870;52.274;9.754;2022-09-09T03:46:25;15.30;99.90
24772;DHT22;12870;52.274;9.754;2022-09-09T03:48:51;15.40;99.90
24772;DHT22;12870;52.274;9.754;2022-09-09T03:51:18;15.40;99.90
24772;DHT22;12870;52.274;9.754;2022-09-09T03:53:44;15.40;99.90
24772;DHT22;12870;52.274;9.754;2022-09-09T03:56:10;15.30;99.90
24772;DHT22;12870;52.274;9.754;2022-09-09T03:58:37;15.30;99.90
24772;DHT22;12870;52.274;9.754;2022-09-09T04:01:05;15.30;99.90
24772;DHT22;12870;52.274;9.754;2022-09-09T04:03:32;15.40;99.90
24772;DHT22;12870;52.274;9.754;2022-09-09T04:05:59;15.40;99.90
24772;DHT22;12870;52.274;9.754;2022-09-09T04:08:26;15.40;99.90
24772;DHT22;12870;52.274;9.754;2022-09-09T04:10:52;15.40;99.90
24772;DHT22;12870;52.274;9.754;2022-09-09T04:13:19;15.40;99.90
24772;DHT22;12870;52.274;9.754;2022-09-09T04:15:53;15.40;99.90
24772;DHT22;12870;52.274;9.754;2022-09-09T04:18:20;15.50;99.90
24772;DHT22;12870;52.274;9.754;2022-09-09T04:20:49;15.50;99.90
24772;DHT22;12870;52.274;9.754;2022-09-09T04:23:16;15.40;99.90
24772;DHT22;12870;52.274;9.754;2022-09-09T04:25:49;15.40;99.90
24772;DHT22;12870;52.274;9.754;2022-09-09T04:28:16;15.40;99.90
24772;DHT22;12870;52.274;9.754;2022-09-09T04:30:43;15.40;99.90
24772;DHT22;12870;52.274;9.754;2022-09-09T04:33:09;15.40;99.90
24772;DHT22;12870;52.274;9.754;2022-09-09T04:35:35;15.40;99.90
24772;DHT22;12870;52.274;9.754;2022-09-09T04:38:01;15.40;99.90
24772;DHT22;12870;52.274;9.754;2022-09-09T04:40:29;15.40;99.90
24772;DHT22;12870;52.274;9.754;2022-09-09T04:42:57;15.40;99.90
24772;DHT22;12870;52.274;9.754;2022-09-09T04:45:23;15.50;99.90
24772;DHT22;12870;52.274;9.754;2022-09-09T04:47:48;15.50;99.90
24772;DHT22;12870;52.274;9.754;2022-09-09T04:50:14;15.50;99.90
24772;DHT22;12870;52.274;9.754;2022-09-09T04:52:41;15.50;99.90
24772;DHT22;12870;52.274;9.754;2022-09-09T04:55:07;15.60;99.90
24772;DHT22;12870;52.274;9.754;2022-09-09T04:57:34;15.60;99.90
24772;DHT22;12870;52.274;9.754;2022-09-09T05:00:00;15.60;99.90
24772;DHT22;12870;52.274;9.754;2022-09-09T05:02:26;15.60;99.90
24772;DHT22;12870;52.274;9.754;2022-09-09T05:04:52;15.60;99.90
24772;DHT22;12870;52.274;9.754;2022-09-09T05:07:17;15.60;99.90
24772;DHT22;12870;52.274;9.754;2022-09-09T05:09:44;15.60;99.90
24772;DHT22;12870;52.274;9.754;2022-09-09T05:12:14;15.60;99.90
24772;DHT22;12870;52.274;9.754;2022-09-09T05:14:39;15.60;99.90
24772;DHT22;12870;52.274;9.754;2022-09-09T05:17:05;15.60;99.90
24772;DHT22;12870;52.274;9.754;2022-09-09T05:19:30;15.70;99.90
24772;DHT22;12870;52.274;9.754;2022-09-09T05:21:56;15.70;99.90
24772;DHT22;12870;52.274;9.754;2022-09-09T05:24:22;15.70;99.90
24772;DHT22;12870;52.274;9.754;2022-09-09T05:26:51;15.70;99.90
24772;DHT22;12870;52.274;9.754;2022-09-09T05:29:17;15.70;99.90
24772;DHT22;12870;52.274;9.754;2022-09-09T05:31:45;15.70;99.90
24772;DHT22;12870;52.274;9.754;2022-09-09T05:34:11;15.70;99.90
24772;DHT22;12870;52.274;9.754;2022-09-09T05:36:37;15.70;99.90
24772;DHT22;12870;52.274;9.754;2022-09-09T05:39:03;15.70;99.90
24772;DHT22;12870;52.274;9.754;2022-09-09T05:41:29;15.70;99.90
24772;DHT22;12870;52.274;9.754;2022-09-09T05:43:55;15.70;99.90
24772;DHT22;12870;52.274;9.754;2022-09-09T05:46:23;15.70;99.90
24772;DHT22;12870;52.274;9.754;2022-09-09T05:48:50;15.80;99.90
24772;DHT22;12870;52.274;9.754;2022-09-09T05:51:18;15.80;99.90
24772;DHT22;12870;52.274;9.754;2022-09-09T05:53:46;15.80;99.90
24772;DHT22;12870;52.274;9.754;2022-09-09T05:56:17;15.70;99.90
24772;DHT22;12870;52.274;9.754;2022-09-09T05:58:43;15.80;99.90
24772;DHT22;12870;52.274;9.754;2022-09-09T06:01:20;15.80;99.90
24772;DHT22;12870;52.274;9.754;2022-09-09T06:03:48;15.90;99.90
24772;DHT22;12870;52.274;9.754;2022-09-09T06:06:19;16.00;99.90
24772;DHT22;12870;52.274;9.754;2022-09-09T06:08:50;16.00;99.90
24772;DHT22;12870;52.274;9.754;2022-09-09T06:11:22;16.00;99.90
24772;DHT22;12870;52.274;9.754;2022-09-09T06:13:48;16.10;99.90
24772;DHT22;12870;52.274;9.754;2022-09-09T06:16:18;16.20;99.90
24772;DHT22;12870;52.274;9.754;2022-09-09T06:18:44;16.30;99.90
24772;DHT22;12870;52.274;9.754;2022-09-09T06:21:18;16.40;99.90
24772;DHT22;12870;52.274;9.754;2022-09-09T06:23:45;16.50;99.90
24772;DHT22;12870;52.274;9.754;2022-09-09T06:26:35;16.60;99.90
24772;DHT22;12870;52.274;9.754;2022-09-09T06:29:02;16.80;99.90
24772;DHT22;12870;52.274;9.754;2022-09-09T06:31:30;16.90;99.90
24772;DHT22;12870;52.274;9.754;2022-09-09T06:33:57;17.10;99.90
24772;DHT22;12870;52.274;9.754;2022-09-09T06:36:25;17.10;99.90
24772;DHT22;12870;52.274;9.754;2022-09-09T06:38:52;17.30;99.90
24772;DHT22;12870;52.274;9.754;2022-09-09T06:41:20;17.30;99.90
24772;DHT22;12870;52.274;9.754;2022-09-09T06:43:46;17.50;99.90
24772;DHT22;12870;52.274;9.754;2022-09-09T06:46:18;17.60;99.90
24772;DHT22;12870;52.274;9.754;2022-09-09T06:48:44;17.70;99.90
24772;DHT22;12870;52.274;9.754;2022-09-09T06:51:16;17.70;99.90
24772;DHT22;12870;52.274;9.754;2022-09-09T06:53:44;17.80;99.90
24772;DHT22;12870;52.274;9.754;2022-09-09T06:58:39;17.80;99.90
24772;DHT22;12870;52.274;9.754;2022-09-09T07:01:11;17.90;99.90
24772;DHT22;12870;52.274;9.754;2022-09-09T07:03:38;17.80;99.90
24772;DHT22;12870;52.274;9.754;2022-09-09T07:06:05;17.80;99.90
24772;DHT22;12870;52.274;9.754;2022-09-09T07:08:31;17.80;99.90
24772;DHT22;12870;52.274;9.754;2022-09-09T07:11:04;17.80;99.90
24772;DHT22;12870;52.274;9.754;2022-09-09T07:13:31;17.80;99.90
24772;DHT22;12870;52.274;9.754;2022-09-09T07:16:08;17.80;99.90
24772;DHT22;12870;52.274;9.754;2022-09-09T07:18:34;17.80;99.90
24772;DHT22;12870;52.274;9.754;2022-09-09T07:21:00;17.80;99.90
24772;DHT22;12870;52.274;9.754;2022-09-09T07:23:28;17.80;99.90
24772;DHT22;12870;52.274;9.754;2022-09-09T07:25:54;17.90;99.90
24772;DHT22;12870;52.274;9.754;2022-09-09T07:28:20;18.00;99.90
24772;DHT22;12870;52.274;9.754;2022-09-09T07:30:57;18.00;99.90
24772;DHT22;12870;52.274;9.754;2022-09-09T07:33:24;18.00;99.90
24772;DHT22;12870;52.274;9.754;2022-09-09T07:35:50;18.10;99.90
24772;DHT22;12870;52.274;9.754;2022-09-09T07:38:16;18.10;99.90
24772;DHT22;12870;52.274;9.754;2022-09-09T07:40:42;18.10;99.90
24772;DHT22;12870;52.274;9.754;2022-09-09T07:43:08;18.20;99.90
24772;DHT22;12870;52.274;9.754;2022-09-09T07:45:34;18.30;99.90
24772;DHT22;12870;52.274;9.754;2022-09-09T07:48:01;18.40;99.90
24772;DHT22;12870;52.274;9.754;2022-09-09T07:50:27;18.50;99.90
24772;DHT22;12870;52.274;9.754;2022-09-09T07:52:53;18.60;99.90
24772;DHT22;12870;52.274;9.754;2022-09-09T07:55:20;18.90;99.90
24772;DHT22;12870;52.274;9.754;2022-09-09T07:57:46;19.00;99.90
24772;DHT22;12870;52.274;9.754;2022-09-09T08:00:12;19.00;99.90
24772;DHT22;12870;52.274;9.754;2022-09-09T08:02:40;19.00;99.90
24772;DHT22;12870;52.274;9.754;2022-09-09T08:05:06;19.00;99.90
24772;DHT22;12870;52.274;9.754;2022-09-09T08:07:32;19.00;99.90
24772;DHT22;12870;52.274;9.754;2022-09-09T08:09:58;19.10;99.90
24772;DHT22;12870;52.274;9.754;2022-09-09T08:12:24;19.20;99.90
24772;DHT22;12870;52.274;9.754;2022-09-09T08:14:49;19.20;99.90
24772;DHT22;12870;52.274;9.754;2022-09-09T08:17:16;19.10;99.90
24772;DHT22;12870;52.274;9.754;2022-09-09T08:19:42;19.00;99.90
24772;DHT22;12870;52.274;9.754;2022-09-09T08:22:09;19.10;99.90
24772;DHT22;12870;52.274;9.754;2022-09-09T08:24:35;19.20;99.90
24772;DHT22;12870;52.274;9.754;2022-09-09T08:27:01;19.30;99.90
24772;DHT22;12870;52.274;9.754;2022-09-09T08:29:27;19.40;99.90
24772;DHT22;12870;52.274;9.754;2022-09-09T08:31:57;19.40;99.90
24772;DHT22;12870;52.274;9.754;2022-09-09T08:34:24;19.50;99.90
24772;DHT22;12870;52.274;9.754;2022-09-09T08:36:52;19.50;99.90
24772;DHT22;12870;52.274;9.754;2022-09-09T08:39:20;19.60;99.90
24772;DHT22;12870;52.274;9.754;2022-09-09T08:44:40;19.60;99.90
24772;DHT22;12870;52.274;9.754;2022-09-09T08:50:21;20.00;99.90
24772;DHT22;12870;52.274;9.754;2022-09-09T08:58:33;20.30;99.90
24772;DHT22;12870;52.274;9.754;2022-09-09T09:12:19;20.30;99.90
24772;DHT22;12870;52.274;9.754;2022-09-09T09:14:47;20.40;99.90
24772;DHT22;12870;52.274;9.754;2022-09-09T09:17:17;20.60;99.90
24772;DHT22;12870;52.274;9.754;2022-09-09T09:19:43;20.70;99.90
24772;DHT22;12870;52.274;9.754;2022-09-09T09:25:19;20.30;99.90
24772;DHT22;12870;52.274;9.754;2022-09-09T09:27:58;20.20;99.90
24772;DHT22;12870;52.274;9.754;2022-09-09T09:30:42;20.20;99.90
24772;DHT22;12870;52.274;9.754;2022-09-09T09:35:52;20.40;99.90
24772;DHT22;12870;52.274;9.754;2022-09-09T09:38:26;20.60;99.90
24772;DHT22;12870;52.274;9.754;2022-09-09T09:40:55;20.70;99.90
24772;DHT22;12870;52.274;9.754;2022-09-09T09:43:34;20.90;99.90
24772;DHT22;12870;52.274;9.754;2022-09-09T09:46:00;20.80;99.90
24772;DHT22;12870;52.274;9.754;2022-09-09T09:48:27;20.90;99.90
24772;DHT22;12870;52.274;9.754;2022-09-09T09:51:19;21.20;99.90
24772;DHT22;12870;52.274;9.754;2022-09-09T09:53:46;21.60;99.90
24772;DHT22;12870;52.274;9.754;2022-09-09T09:56:13;21.70;99.90
24772;DHT22;12870;52.274;9.754;2022-09-09T10:01:24;21.60;99.90
24772;DHT22;12870;52.274;9.754;2022-09-09T10:03:51;21.50;99.90
24772;DHT22;12870;52.274;9.754;2022-09-09T10:06:29;21.40;99.90
24772;DHT22;12870;52.274;9.754;2022-09-09T10:08:55;21.10;99.90
24772;DHT22;12870;52.274;9.754;2022-09-09T10:14:29;21.10;99.90
24772;DHT22;12870;52.274;9.754;2022-09-09T10:17:08;21.10;99.90
24772;DHT22;12870;52.274;9.754;2022-09-09T10:19:37;21.10;99.90
24772;DHT22;12870;52.274;9.754;2022-09-09T10:28:01;20.90;99.90
24772;DHT22;12870;52.274;9.754;2022-09-09T10:36:19;20.60;99.90
24772;DHT22;12870;52.274;9.754;2022-09-09T10:38:47;20.50;99.90
24772;DHT22;12870;52.274;9.754;2022-09-09T10:41:39;20.40;99.90
24772;DHT22;12870;52.274;9.754;2022-09-09T10:52:21;22.70;99.90
24772;DHT22;12870;52.274;9.754;2022-09-09T10:55:06;23.50;99.90
24772;DHT22;12870;52.274;9.754;2022-09-09T10:57:42;24.50;99.90
24772;DHT22;12870;52.274;9.754;2022-09-09T11:00:17;25.90;99.90
24772;DHT22;12870;52.274;9.754;2022-09-09T11:02:43;26.70;99.90
24772;DHT22;12870;52.274;9.754;2022-09-09T11:05:53;26.70;99.90
24772;DHT22;12870;52.274;9.754;2022-09-09T11:08:19;26.90;99.90
24772;DHT22;12870;52.274;9.754;2022-09-09T11:11:04;25.90;99.90
24772;DHT22;12870;52.274;9.754;2022-09-09T11:16:39;23.70;99.90
24772;DHT22;12870;52.274;9.754;2022-09-09T11:19:35;22.90;99.90
24772;DHT22;12870;52.274;9.754;2022-09-09T11:24:43;21.10;99.90
24772;DHT22;12870;52.274;9.754;2022-09-09T11:27:19;20.10;99.90
24772;DHT22;12870;52.274;9.754;2022-09-09T11:35:26;18.60;99.90
24772;DHT22;12870;52.274;9.754;2022-09-09T11:41:02;18.20;99.90
24772;DHT22;12870;52.274;9.754;2022-09-09T11:43:39;18.10;99.90
24772;DHT22;12870;52.274;9.754;2022-09-09T11:46:06;18.10;99.90
24772;DHT22;12870;52.274;9.754;2022-09-09T11:48:44;18.20;99.90
24772;DHT22;12870;52.274;9.754;2022-09-09T11:51:33;18.20;99.90
24772;DHT22;12870;52.274;9.754;2022-09-09T11:56:45;18.20;99.90
24772;DHT22;12870;52.274;9.754;2022-09-09T11:59:37;18.20;99.90
24772;DHT22;12870;52.274;9.754;2022-09-09T12:04:54;18.30;99.90
24772;DHT22;12870;52.274;9.754;2022-09-09T12:07:34;18.50;99.90
24772;DHT22;12870;52.274;9.754;2022-09-09T12:10:26;18.80;99.90
24772;DHT22;12870;52.274;9.754;2022-09-09T12:12:53;19.50;99.90
24772;DHT22;12870;52.274;9.754;2022-09-09T12:15:27;20.40;99.90
24772;DHT22;12870;52.274;9.754;2022-09-09T12:17:56;21.00;99.90
24772;DHT22;12870;52.274;9.754;2022-09-09T12:20:31;21.40;99.90
24772;DHT22;12870;52.274;9.754;2022-09-09T12:33:47;20.50;99.90
24772;DHT22;12870;52.274;9.754;2022-09-09T12:38:46;20.30;99.90
24772;DHT22;12870;52.274;9.754;2022-09-09T12:41:24;20.40;99.90
24772;DHT22;12870;52.274;9.754;2022-09-09T12:43:50;20.50;99.90
24772;DHT22;12870;52.274;9.754;2022-09-09T12:46:48;20.60;99.90
24772;DHT22;12870;52.274;9.754;2022-09-09T12:49:35;20.80;99.90
24772;DHT22;12870;52.274;9.754;2022-09-09T12:52:31;20.70;99.90
24772;DHT22;12870;52.274;9.754;2022-09-09T12:54:59;20.70;99.90
24772;DHT22;12870;52.274;9.754;2022-09-09T12:57:29;20.70;99.90
24772;DHT22;12870;52.274;9.754;2022-09-09T13:00:12;20.70;99.90
24772;DHT22;12870;52.274;9.754;2022-09-09T13:03:15;20.60;99.90
24772;DHT22;12870;52.274;9.754;2022-09-09T13:05:37;20.80;99.90
24772;DHT22;12870;52.274;9.754;2022-09-09T13:08:06;21.40;99.90
24772;DHT22;12870;52.274;9.754;2022-09-09T13:10:35;22.40;99.90
24772;DHT22;12870;52.274;9.754;2022-09-09T13:13:04;22.80;99.90
24772;DHT22;12870;52.274;9.754;2022-09-09T13:15:30;22.80;99.90
24772;DHT22;12870;52.274;9.754;2022-09-09T13:18:03;22.80;99.90
24772;DHT22;12870;52.274;9.754;2022-09-09T13:20:31;22.60;99.90
24772;DHT22;12870;52.274;9.754;2022-09-09T13:22:56;22.50;99.90
24772;DHT22;12870;52.274;9.754;2022-09-09T13:25:29;22.20;99.90
24772;DHT22;12870;52.274;9.754;2022-09-09T13:30:30;21.90;99.90
24772;DHT22;12870;52.274;9.754;2022-09-09T13:33:22;21.70;99.90
24772;DHT22;12870;52.274;9.754;2022-09-09T13:38:17;21.50;99.90
24772;DHT22;12870;52.274;9.754;2022-09-09T13:40:57;21.50;99.90
24772;DHT22;12870;52.274;9.754;2022-09-09T13:43:27;21.50;99.90
24772;DHT22;12870;52.274;9.754;2022-09-09T13:45:59;21.70;99.90
24772;DHT22;12870;52.274;9.754;2022-09-09T13:48:26;21.70;99.90
24772;DHT22;12870;52.274;9.754;2022-09-09T13:51:01;21.70;99.90
24772;DHT22;12870;52.274;9.754;2022-09-09T13:53:30;22.10;99.90
24772;DHT22;12870;52.274;9.754;2022-09-09T13:55:56;22.60;99.90
24772;DHT22;12870;52.274;9.754;2022-09-09T13:58:22;23.50;99.90
24772;DHT22;12870;52.274;9.754;2022-09-09T14:00:50;24.50;99.90
24772;DHT22;12870;52.274;9.754;2022-09-09T14:03:16;25.60;99.90
24772;DHT22;12870;52.274;9.754;2022-09-09T14:05:42;26.70;99.90
24772;DHT22;12870;52.274;9.754;2022-09-09T14:08:21;27.10;99.90
24772;DHT22;12870;52.274;9.754;2022-09-09T14:10:48;27.70;99.90
24772;DHT22;12870;52.274;9.754;2022-09-09T14:13:13;28.70;99.90
24772;DHT22;12870;52.274;9.754;2022-09-09T14:15:41;29.70;99.90
24772;DHT22;12870;52.274;9.754;2022-09-09T14:18:10;30.40;99.90
24772;DHT22;12870;52.274;9.754;2022-09-09T14:20:37;31.10;99.20
24772;DHT22;12870;52.274;9.754;2022-09-09T14:23:03;31.30;96.10
24772;DHT22;12870;52.274;9.754;2022-09-09T14:25:28;31.40;95.30
24772;DHT22;12870;52.274;9.754;2022-09-09T14:27:54;31.50;95.00
24772;DHT22;12870;52.274;9.754;2022-09-09T14:30:19;30.40;94.40
24772;DHT22;12870;52.274;9.754;2022-09-09T14:32:45;29.40;95.80
24772;DHT22;12870;52.274;9.754;2022-09-09T14:35:11;28.70;96.00
24772;DHT22;12870;52.274;9.754;2022-09-09T14:37:37;27.80;96.70
24772;DHT22;12870;52.274;9.754;2022-09-09T14:40:04;27.00;97.60
24772;DHT22;12870;52.274;9.754;2022-09-09T14:42:30;26.40;97.10
24772;DHT22;12870;52.274;9.754;2022-09-09T14:44:56;25.70;98.40
24772;DHT22;12870;52.274;9.754;2022-09-09T14:47:21;25.30;99.90
24772;DHT22;12870;52.274;9.754;2022-09-09T14:49:47;25.10;99.90
24772;DHT22;12870;52.274;9.754;2022-09-09T14:52:15;25.00;99.90
24772;DHT22;12870;52.274;9.754;2022-09-09T14:54:41;25.50;99.90
24772;DHT22;12870;52.274;9.754;2022-09-09T14:57:07;25.80;99.90
24772;DHT22;12870;52.274;9.754;2022-09-09T14:59:33;26.00;99.90
24772;DHT22;12870;52.274;9.754;2022-09-09T15:01:59;26.70;99.90
24772;DHT22;12870;52.274;9.754;2022-09-09T15:04:29;27.10;99.90
24772;DHT22;12870;52.274;9.754;2022-09-09T15:06:55;27.20;99.20
24772;DHT22;12870;52.274;9.754;2022-09-09T15:09:20;26.40;99.40
24772;DHT22;12870;52.274;9.754;2022-09-09T15:11:46;25.80;99.90
24772;DHT22;12870;52.274;9.754;2022-09-09T15:14:12;25.50;99.90
24772;DHT22;12870;52.274;9.754;2022-09-09T15:16:39;25.30;99.90
24772;DHT22;12870;52.274;9.754;2022-09-09T15:19:05;25.20;99.90
24772;DHT22;12870;52.274;9.754;2022-09-09T15:21:33;24.90;99.90
24772;DHT22;12870;52.274;9.754;2022-09-09T15:24:00;24.60;99.90
24772;DHT22;12870;52.274;9.754;2022-09-09T15:26:26;24.60;99.90
24772;DHT22;12870;52.274;9.754;2022-09-09T15:28:53;25.30;99.90
24772;DHT22;12870;52.274;9.754;2022-09-09T15:31:24;26.10;99.90
24772;DHT22;12870;52.274;9.754;2022-09-09T15:33:52;26.60;99.10
24772;DHT22;12870;52.274;9.754;2022-09-09T15:36:20;26.90;99.10
24772;DHT22;12870;52.274;9.754;2022-09-09T15:38:47;27.20;97.30
24772;DHT22;12870;52.274;9.754;2022-09-09T15:41:14;27.00;98.00
24772;DHT22;12870;52.274;9.754;2022-09-09T15:43:46;27.20;98.10
24772;DHT22;12870;52.274;9.754;2022-09-09T15:46:34;27.40;97.80
24772;DHT22;12870;52.274;9.754;2022-09-09T15:49:19;27.70;98.10
24772;DHT22;12870;52.274;9.754;2022-09-09T15:51:55;27.90;97.30
24772;DHT22;12870;52.274;9.754;2022-09-09T15:54:22;28.00;97.20
24772;DHT22;12870;52.274;9.754;2022-09-09T15:56:57;28.00;97.20
24772;DHT22;12870;52.274;9.754;2022-09-09T15:59:24;28.20;95.70
24772;DHT22;12870;52.274;9.754;2022-09-09T16:01:50;27.80;95.50
24772;DHT22;12870;52.274;9.754;2022-09-09T16:04:19;27.80;96.00
24772;DHT22;12870;52.274;9.754;2022-09-09T16:06:53;27.50;96.90
24772;DHT22;12870;52.274;9.754;2022-09-09T16:09:19;27.60;96.70
24772;DHT22;12870;52.274;9.754;2022-09-09T16:11:46;27.40;96.30
24772;DHT22;12870;52.274;9.754;2022-09-09T16:14:13;27.00;97.50
24772;DHT22;12870;52.274;9.754;2022-09-09T16:16:41;26.50;98.10
24772;DHT22;12870;52.274;9.754;2022-09-09T16:19:09;26.10;98.90
24772;DHT22;12870;52.274;9.754;2022-09-09T16:21:45;25.70;99.20
24772;DHT22;12870;52.274;9.754;2022-09-09T16:24:15;25.30;99.90
24772;DHT22;12870;52.274;9.754;2022-09-09T16:26:43;24.90;99.90
24772;DHT22;12870;52.274;9.754;2022-09-09T16:29:13;24.50;99.90
24772;DHT22;12870;52.274;9.754;2022-09-09T16:31:40;24.20;99.90
24772;DHT22;12870;52.274;9.754;2022-09-09T16:34:06;24.00;99.90
24772;DHT22;12870;52.274;9.754;2022-09-09T16:36:34;23.80;99.90
24772;DHT22;12870;52.274;9.754;2022-09-09T16:39:03;23.60;99.90
24772;DHT22;12870;52.274;9.754;2022-09-09T16:41:30;23.50;99.90
24772;DHT22;12870;52.274;9.754;2022-09-09T16:43:58;23.40;99.90
24772;DHT22;12870;52.274;9.754;2022-09-09T16:46:27;23.20;99.90
24772;DHT22;12870;52.274;9.754;2022-09-09T16:48:53;23.10;99.90
24772;DHT22;12870;52.274;9.754;2022-09-09T16:51:23;23.10;99.90
24772;DHT22;12870;52.274;9.754;2022-09-09T16:53:50;23.00;99.90
24772;DHT22;12870;52.274;9.754;2022-09-09T16:56:18;22.90;99.90
24772;DHT22;12870;52.274;9.754;2022-09-09T16:58:49;22.80;99.90
24772;DHT22;12870;52.274;9.754;2022-09-09T17:01:15;22.70;99.90
24772;DHT22;12870;52.274;9.754;2022-09-09T17:03:41;22.60;99.90
24772;DHT22;12870;52.274;9.754;2022-09-09T17:06:14;22.50;99.90
24772;DHT22;12870;52.274;9.754;2022-09-09T17:08:40;22.40;99.90
24772;DHT22;12870;52.274;9.754;2022-09-09T17:11:13;22.30;99.90
24772;DHT22;12870;52.274;9.754;2022-09-09T17:13:43;22.10;99.90
24772;DHT22;12870;52.274;9.754;2022-09-09T17:16:10;22.00;99.90
24772;DHT22;12870;52.274;9.754;2022-09-09T17:18:36;21.90;99.90
24772;DHT22;12870;52.274;9.754;2022-09-09T17:21:07;21.70;99.90
24772;DHT22;12870;52.274;9.754;2022-09-09T17:23:36;21.70;99.90
24772;DHT22;12870;52.274;9.754;2022-09-09T17:26:08;21.60;99.90
24772;DHT22;12870;52.274;9.754;2022-09-09T17:28:35;21.50;99.90
24772;DHT22;12870;52.274;9.754;2022-09-09T17:31:02;21.40;99.90
24772;DHT22;12870;52.274;9.754;2022-09-09T17:33:30;21.40;99.90
24772;DHT22;12870;52.274;9.754;2022-09-09T17:36:01;21.30;99.90
24772;DHT22;12870;52.274;9.754;2022-09-09T17:38:27;21.20;99.90
24772;DHT22;12870;52.274;9.754;2022-09-09T17:41:18;21.10;99.90
24772;DHT22;12870;52.274;9.754;2022-09-09T17:43:44;21.00;99.90
24772;DHT22;12870;52.274;9.754;2022-09-09T17:46:17;20.90;99.90
24772;DHT22;12870;52.274;9.754;2022-09-09T17:48:45;20.90;99.90
24772;DHT22;12870;52.274;9.754;2022-09-09T17:51:17;20.80;99.90
24772;DHT22;12870;52.274;9.754;2022-09-09T17:53:47;20.70;99.90
24772;DHT22;12870;52.274;9.754;2022-09-09T17:56:15;20.70;99.90
24772;DHT22;12870;52.274;9.754;2022-09-09T17:58:41;20.70;99.90
24772;DHT22;12870;52.274;9.754;2022-09-09T18:01:13;20.60;99.90